Avisos AEMET Campiña SevillanaSin Avisos    + INFO

Informes METAR cercanos

 

LEZL - Sevilla (civ/Mil, Spain
Distancia de la estación: O 16km
Actualización: 26/10/2021 00:00
Despejado
Despejado
 Viento del SSO
Viento: SSO 9 km/h
Temperatura: 19°C
Rocío: 9°C
Humedad: 52%
Barómetro: 1019 hPa
Resumen: Despejado
Visibilidad: greater than 10 km
2021/10/25 22:00 LEZL 252200Z 21005KT CAVOK 19/09 Q1019 NOSIG
LEMO - Moron (sp-Usafb), Spain
Distancia de la estación: SSE 27km
Actualización: 26/10/2021 00:00
Despejado
Despejado
 Viento del SSO
Viento: SSO 13 km/h
Temperatura: 19°C
Rocío: 10°C
Humedad: 56%
Barómetro: 1019 hPa
Resumen: Despejado
Visibilidad: greater than 10 km
2021/10/25 22:00 LEMO 252200Z 21007KT CAVOK 19/10 Q1019 NOSIG